createdAt,value
2018-01-07T00:00:44.526Z,4.67
2018-01-07T00:03:12.848Z,4.78
2018-01-07T00:05:41.186Z,4.73
2018-01-07T00:08:09.513Z,4.67
2018-01-07T00:10:37.864Z,4.73
2018-01-07T00:13:06.186Z,4.69
2018-01-07T00:15:34.530Z,4.71
2018-01-07T00:18:02.847Z,4.67
2018-01-07T00:20:31.186Z,4.77
2018-01-07T00:22:59.510Z,4.71
2018-01-07T00:25:27.856Z,4.65
2018-01-07T00:27:56.165Z,4.58
2018-01-07T00:30:24.510Z,4.57
2018-01-07T00:32:52.829Z,4.63
2018-01-07T00:35:21.167Z,4.56
2018-01-07T00:37:49.783Z,4.56
2018-01-07T00:40:18.129Z,4.57
2018-01-07T00:42:46.447Z,4.48
2018-01-07T00:45:14.777Z,4.56
2018-01-07T00:47:43.094Z,4.48
2018-01-07T00:50:11.434Z,4.44
2018-01-07T00:52:39.751Z,4.44
2018-01-07T00:55:08.088Z,4.50
2018-01-07T00:57:36.410Z,4.51
2018-01-07T01:00:04.750Z,4.36
2018-01-07T01:02:33.062Z,4.37
2018-01-07T01:05:01.402Z,4.34
2018-01-07T01:07:29.713Z,4.40
2018-01-07T01:09:58.055Z,4.39
2018-01-07T01:12:26.370Z,4.39
2018-01-07T01:14:54.714Z,4.36
2018-01-07T01:17:23.026Z,4.35
2018-01-07T01:19:51.371Z,4.31
2018-01-07T01:22:19.690Z,4.36
2018-01-07T01:24:48.022Z,4.33
2018-01-07T01:27:16.330Z,4.30
2018-01-07T01:29:44.674Z,4.30
2018-01-07T01:32:12.986Z,4.23
2018-01-07T01:34:41.304Z,4.30
2018-01-07T01:37:09.642Z,4.25
2018-01-07T01:39:37.965Z,4.25
2018-01-07T01:42:06.298Z,4.28
2018-01-07T01:44:34.614Z,4.32
2018-01-07T01:47:02.946Z,4.35
2018-01-07T01:52:05.878Z,4.29
2018-01-07T01:54:34.178Z,4.25
2018-01-07T01:57:02.510Z,4.27
2018-01-07T01:59:30.830Z,4.25
2018-01-07T02:01:59.158Z,4.25
2018-01-07T02:04:27.478Z,4.19
2018-01-07T02:06:55.814Z,4.19
2018-01-07T02:09:24.269Z,4.15
2018-01-07T02:11:52.610Z,4.20
2018-01-07T02:14:21.446Z,4.16
2018-01-07T02:16:49.775Z,4.18
2018-01-07T02:19:18.088Z,4.15
2018-01-07T02:21:46.429Z,4.22
2018-01-07T02:24:15.246Z,4.09
2018-01-07T02:26:43.578Z,4.12
2018-01-07T02:29:11.886Z,4.04
2018-01-07T02:31:40.232Z,4.00
2018-01-07T02:34:08.545Z,3.99
2018-01-07T02:36:36.878Z,3.96
2018-01-07T02:39:05.194Z,3.91
2018-01-07T02:41:33.530Z,3.92
2018-01-07T02:44:01.837Z,3.89
2018-01-07T02:46:30.174Z,3.90
2018-01-07T02:48:58.489Z,3.90
2018-01-07T02:51:26.822Z,3.83
2018-01-07T02:53:55.142Z,3.81
2018-01-07T02:56:23.488Z,3.74
2018-01-07T02:58:51.794Z,3.78
2018-01-07T03:01:20.129Z,3.72
2018-01-07T03:03:48.442Z,3.68
2018-01-07T03:06:16.778Z,3.48
2018-01-07T03:08:45.091Z,3.44
2018-01-07T03:11:13.439Z,3.34
2018-01-07T03:13:41.754Z,3.34
2018-01-07T03:16:10.089Z,3.31
2018-01-07T03:18:38.412Z,3.33
2018-01-07T03:21:06.742Z,3.32
2018-01-07T03:23:35.054Z,3.27
2018-01-07T03:26:03.394Z,3.28
2018-01-07T03:28:31.710Z,3.24
2018-01-07T03:31:00.048Z,3.28
2018-01-07T03:33:28.362Z,3.28
2018-01-07T03:35:56.701Z,3.26
2018-01-07T03:38:25.023Z,3.17
2018-01-07T03:40:53.342Z,3.17
2018-01-07T03:43:21.682Z,3.08
2018-01-07T03:45:49.996Z,3.14
2018-01-07T03:48:18.649Z,3.08
2018-01-07T03:50:46.961Z,3.05
2018-01-07T03:53:15.295Z,3.07
2018-01-07T03:55:43.611Z,2.90
2018-01-07T03:58:11.941Z,2.86
2018-01-07T04:00:40.249Z,2.85
2018-01-07T04:03:08.587Z,2.75
2018-01-07T04:05:36.904Z,2.73
2018-01-07T04:08:05.242Z,2.74
2018-01-07T04:10:33.542Z,2.74
2018-01-07T04:13:01.870Z,2.69
2018-01-07T04:15:30.186Z,2.74
2018-01-07T04:17:58.514Z,2.64
2018-01-07T04:20:26.830Z,2.60
2018-01-07T04:22:55.815Z,2.62
2018-01-07T04:25:24.126Z,2.59
2018-01-07T04:27:52.462Z,2.55
2018-01-07T04:30:20.770Z,2.57
2018-01-07T04:32:49.097Z,2.50
2018-01-07T04:35:17.417Z,2.54
2018-01-07T04:37:45.754Z,2.61
2018-01-07T04:40:14.074Z,2.54
2018-01-07T04:42:42.412Z,2.39
2018-01-07T04:45:10.722Z,2.50
2018-01-07T04:47:39.054Z,2.38
2018-01-07T04:50:07.366Z,2.41
2018-01-07T04:52:35.703Z,2.45
2018-01-07T04:55:04.022Z,2.45
2018-01-07T04:57:32.367Z,2.35
2018-01-07T05:00:00.686Z,2.34
2018-01-07T05:02:29.032Z,2.25
2018-01-07T05:04:57.351Z,2.29
2018-01-07T05:07:25.690Z,2.26
2018-01-07T05:09:53.998Z,2.29
2018-01-07T05:12:22.334Z,2.28
2018-01-07T05:14:50.649Z,2.28
2018-01-07T05:17:18.983Z,2.22
2018-01-07T05:19:47.301Z,2.20
2018-01-07T05:22:15.643Z,2.17
2018-01-07T05:24:43.950Z,2.14
2018-01-07T05:27:12.286Z,2.10
2018-01-07T05:29:41.743Z,2.13
2018-01-07T05:32:10.074Z,2.05
2018-01-07T05:34:38.389Z,2.11
2018-01-07T05:37:06.731Z,2.10
2018-01-07T05:39:35.043Z,2.06
2018-01-07T05:42:03.401Z,2.02
2018-01-07T05:44:31.718Z,2.02
2018-01-07T05:47:00.041Z,1.96
2018-01-07T05:49:28.362Z,1.92
2018-01-07T05:51:56.675Z,1.94
2018-01-07T05:54:25.010Z,1.90
2018-01-07T05:56:53.331Z,1.88
2018-01-07T05:59:21.678Z,1.85
2018-01-07T06:01:49.991Z,1.87
2018-01-07T06:04:18.325Z,1.84
2018-01-07T06:06:46.648Z,1.89
2018-01-07T06:09:14.990Z,1.81
2018-01-07T06:11:43.310Z,1.82
2018-01-07T06:14:11.650Z,1.83
2018-01-07T06:16:39.966Z,1.84
2018-01-07T06:19:08.306Z,1.83
2018-01-07T06:21:36.617Z,1.81
2018-01-07T06:24:04.955Z,1.80
2018-01-07T06:26:33.278Z,1.79
2018-01-07T06:29:01.624Z,1.75
2018-01-07T06:31:29.934Z,1.79
2018-01-07T06:33:58.270Z,1.72
2018-01-07T06:36:26.594Z,1.78
2018-01-07T06:38:54.944Z,1.74
2018-01-07T06:41:23.256Z,1.75
2018-01-07T06:43:51.590Z,1.78
2018-01-07T06:46:19.906Z,1.68
2018-01-07T06:48:48.242Z,1.75
2018-01-07T06:51:16.558Z,1.80
2018-01-07T06:53:44.894Z,1.70
2018-01-07T06:56:13.214Z,1.65
2018-01-07T06:58:41.555Z,1.71
2018-01-07T07:01:09.874Z,1.64
2018-01-07T07:03:38.205Z,1.69
2018-01-07T07:06:06.525Z,1.69
2018-01-07T07:08:34.870Z,1.67
2018-01-07T07:11:03.182Z,1.69
2018-01-07T07:13:31.518Z,1.65
2018-01-07T07:15:59.833Z,1.66
2018-01-07T07:18:28.175Z,1.70
2018-01-07T07:20:56.489Z,1.66
2018-01-07T07:23:24.830Z,1.64
2018-01-07T07:25:53.142Z,1.68
2018-01-07T07:28:21.483Z,1.63
2018-01-07T07:30:49.802Z,1.63
2018-01-07T07:33:18.138Z,1.56
2018-01-07T07:35:46.482Z,1.56
2018-01-07T07:38:14.822Z,1.63
2018-01-07T07:40:43.337Z,1.64
2018-01-07T07:43:11.726Z,1.55
2018-01-07T07:45:41.013Z,1.64
2018-01-07T07:48:09.372Z,1.62
2018-01-07T07:50:38.273Z,1.67
2018-01-07T07:53:06.572Z,1.58
2018-01-07T07:55:34.990Z,1.58
2018-01-07T07:58:03.815Z,1.65
2018-01-07T08:00:32.243Z,1.64
2018-01-07T08:03:00.774Z,1.66
2018-01-07T08:05:29.569Z,1.70
2018-01-07T08:07:57.895Z,1.71
2018-01-07T08:10:26.244Z,1.58
2018-01-07T08:12:54.562Z,1.61
2018-01-07T08:15:23.241Z,1.67
2018-01-07T08:17:51.562Z,1.59
2018-01-07T08:20:19.903Z,1.61
2018-01-07T08:22:48.230Z,1.56
2018-01-07T08:25:16.802Z,1.60
2018-01-07T08:27:45.127Z,1.61
2018-01-07T08:30:14.784Z,1.65
2018-01-07T08:32:43.144Z,1.66
2018-01-07T08:35:12.015Z,1.58
2018-01-07T08:37:40.318Z,1.61
2018-01-07T08:40:08.653Z,1.58
2018-01-07T08:42:36.969Z,1.68
2018-01-07T08:45:05.310Z,1.66
2018-01-07T08:47:33.767Z,1.68
2018-01-07T08:50:02.098Z,1.73
2018-01-07T08:52:30.469Z,1.79
2018-01-07T08:54:58.806Z,1.80
2018-01-07T08:57:27.123Z,1.94
2018-01-07T08:59:55.467Z,1.88
2018-01-07T09:02:23.786Z,1.83
2018-01-07T09:04:52.122Z,1.72
2018-01-07T09:07:20.634Z,1.79
2018-01-07T09:09:48.966Z,1.89
2018-01-07T09:12:17.286Z,1.84
2018-01-07T09:14:45.655Z,1.87
2018-01-07T09:17:14.100Z,1.92
2018-01-07T09:19:42.438Z,1.86
2018-01-07T09:22:10.758Z,1.84
2018-01-07T09:24:39.127Z,1.81
2018-01-07T09:27:07.441Z,1.83
2018-01-07T09:29:35.780Z,1.93
2018-01-07T09:32:04.609Z,1.83
2018-01-07T09:34:32.946Z,1.91
2018-01-07T09:37:01.274Z,1.98
2018-01-07T09:39:29.911Z,1.96
2018-01-07T09:41:58.370Z,2.00
2018-01-07T09:44:26.699Z,1.96
2018-01-07T09:46:55.106Z,1.97
2018-01-07T09:49:23.580Z,1.96
2018-01-07T09:51:51.899Z,1.98
2018-01-07T09:54:20.350Z,2.01
2018-01-07T09:56:49.273Z,1.94
2018-01-07T09:59:17.590Z,1.93
2018-01-07T10:01:45.922Z,2.02
2018-01-07T10:04:14.242Z,2.02
2018-01-07T10:06:42.578Z,1.98
2018-01-07T10:09:10.899Z,2.02
2018-01-07T10:11:39.238Z,1.98
2018-01-07T10:14:08.150Z,1.90
2018-01-07T10:16:36.493Z,2.05
2018-01-07T10:19:04.806Z,2.04
2018-01-07T10:21:33.155Z,2.05
2018-01-07T10:24:01.469Z,1.98
2018-01-07T10:26:29.818Z,2.04
2018-01-07T10:28:58.133Z,2.11
2018-01-07T10:31:26.470Z,2.19
2018-01-07T10:33:54.810Z,2.20
2018-01-07T10:36:23.150Z,2.20
2018-01-07T10:38:51.473Z,2.22
2018-01-07T10:41:19.832Z,2.26
2018-01-07T10:43:48.146Z,2.14
2018-01-07T10:46:16.482Z,2.25
2018-01-07T10:48:44.798Z,2.30
2018-01-07T10:51:13.138Z,2.34
2018-01-07T10:53:41.455Z,2.44
2018-01-07T10:56:09.805Z,2.52
2018-01-07T10:58:38.117Z,2.47
2018-01-07T11:01:12.116Z,2.45
2018-01-07T11:03:40.432Z,2.47
2018-01-07T11:06:08.769Z,2.50
2018-01-07T11:08:37.084Z,2.71
2018-01-07T11:11:05.425Z,2.75
2018-01-07T11:13:33.738Z,2.71
2018-01-07T11:16:02.086Z,2.68
2018-01-07T11:18:30.403Z,2.54
2018-01-07T11:20:58.758Z,2.56
2018-01-07T11:23:27.074Z,2.59
2018-01-07T11:25:55.410Z,2.54
2018-01-07T11:28:24.458Z,2.57
2018-01-07T11:30:52.798Z,2.55
2018-01-07T11:33:21.115Z,2.72
2018-01-07T11:35:51.146Z,2.61
2018-01-07T11:38:21.922Z,2.74
2018-01-07T11:40:51.435Z,2.70
2018-01-07T11:43:21.430Z,2.78
2018-01-07T11:45:50.726Z,2.80
2018-01-07T11:48:19.042Z,2.85
2018-01-07T11:50:47.411Z,3.02
2018-01-07T11:53:17.370Z,3.11
2018-01-07T11:55:45.767Z,3.24
2018-01-07T11:58:15.674Z,3.14
2018-01-07T12:00:49.525Z,3.16
2018-01-07T12:03:17.842Z,3.29
2018-01-07T12:05:46.182Z,3.33
2018-01-07T12:08:14.667Z,3.25
2018-01-07T12:10:43.021Z,3.21
2018-01-07T12:13:11.333Z,3.25
2018-01-07T12:15:39.650Z,3.31
2018-01-07T12:18:07.995Z,3.28
2018-01-07T12:20:36.332Z,3.28
2018-01-07T12:23:04.658Z,3.27
2018-01-07T12:25:34.098Z,3.35
2018-01-07T12:28:03.250Z,3.31
2018-01-07T12:30:31.567Z,3.25
2018-01-07T12:32:59.927Z,3.29
2018-01-07T12:35:28.253Z,3.34
2018-01-07T12:37:56.582Z,3.23
2018-01-07T12:40:24.909Z,3.32
2018-01-07T12:42:53.246Z,3.34
2018-01-07T12:45:21.562Z,3.38
2018-01-07T12:47:49.902Z,3.42
2018-01-07T12:50:18.217Z,3.53
2018-01-07T12:52:46.559Z,3.38
2018-01-07T12:55:14.894Z,3.42
2018-01-07T12:57:43.402Z,3.35
2018-01-07T13:00:13.076Z,3.25
2018-01-07T13:02:46.914Z,3.23
2018-01-07T13:05:15.958Z,3.27
2018-01-07T13:07:46.812Z,3.28
2018-01-07T13:10:15.130Z,3.28
2018-01-07T13:12:43.550Z,3.24
2018-01-07T13:15:11.878Z,3.29
2018-01-07T13:17:40.221Z,3.38
2018-01-07T13:20:08.534Z,3.35
2018-01-07T13:22:36.869Z,3.22
2018-01-07T13:25:05.185Z,3.13
2018-01-07T13:27:33.546Z,3.20
2018-01-07T13:30:01.870Z,3.10
2018-01-07T13:32:30.213Z,3.07
2018-01-07T13:34:58.543Z,2.91
2018-01-07T13:37:26.878Z,2.89
2018-01-07T13:39:55.236Z,2.91
2018-01-07T13:42:23.575Z,2.95
2018-01-07T13:44:51.895Z,2.90
2018-01-07T13:47:20.239Z,2.97
2018-01-07T13:49:48.934Z,2.90
2018-01-07T13:52:17.270Z,2.94
2018-01-07T13:54:45.600Z,2.99
2018-01-07T13:57:13.934Z,2.91
2018-01-07T13:59:42.246Z,2.81
2018-01-07T14:02:10.590Z,2.83
2018-01-07T14:04:38.914Z,2.78
2018-01-07T14:07:07.255Z,2.72
2018-01-07T14:09:36.522Z,2.77
2018-01-07T14:12:04.854Z,2.65
2018-01-07T14:14:33.174Z,2.71
2018-01-07T14:17:01.514Z,2.67
2018-01-07T14:19:29.830Z,2.66
2018-01-07T14:21:58.202Z,2.70
2018-01-07T14:24:26.527Z,2.65
2018-01-07T14:26:54.856Z,2.69
2018-01-07T14:29:23.198Z,2.71
2018-01-07T14:31:51.524Z,2.62
2018-01-07T14:34:19.866Z,2.61
2018-01-07T14:36:48.191Z,2.63
2018-01-07T14:39:16.566Z,2.52
2018-01-07T14:41:44.899Z,2.66
2018-01-07T14:44:13.243Z,2.63
2018-01-07T14:46:41.561Z,2.57
2018-01-07T14:49:09.898Z,2.69
2018-01-07T14:51:38.218Z,2.69
2018-01-07T14:54:06.567Z,2.61
2018-01-07T14:56:34.887Z,2.60
2018-01-07T14:59:03.232Z,2.64
2018-01-07T15:01:31.545Z,2.63
2018-01-07T15:03:59.881Z,2.50
2018-01-07T15:06:28.198Z,2.47
2018-01-07T15:08:56.549Z,2.56
2018-01-07T15:11:24.866Z,2.46
2018-01-07T15:13:53.206Z,2.36
2018-01-07T15:16:21.521Z,2.30
2018-01-07T15:18:49.866Z,2.42
2018-01-07T15:21:18.189Z,2.41
2018-01-07T15:23:46.523Z,2.40
2018-01-07T15:26:14.834Z,2.27
2018-01-07T15:28:43.174Z,2.32
2018-01-07T15:31:11.501Z,2.30
2018-01-07T15:33:39.842Z,2.29
2018-01-07T15:36:08.158Z,2.30
2018-01-07T15:38:36.502Z,2.28
2018-01-07T15:41:04.844Z,2.21
2018-01-07T15:43:33.190Z,2.19
2018-01-07T15:46:01.510Z,2.16
2018-01-07T15:48:29.849Z,2.14
2018-01-07T15:50:58.169Z,1.99
2018-01-07T15:53:27.414Z,2.02
2018-01-07T15:55:56.699Z,1.82
2018-01-07T15:58:25.037Z,1.91
2018-01-07T16:00:53.364Z,1.92
2018-01-07T16:03:21.710Z,1.83
2018-01-07T16:05:50.057Z,1.74
2018-01-07T16:08:18.517Z,1.82
2018-01-07T16:13:32.465Z,1.85
2018-01-07T16:16:01.676Z,1.83
2018-01-07T16:18:34.725Z,1.81
2018-01-07T16:21:03.051Z,1.75
2018-01-07T16:23:31.411Z,1.70
2018-01-07T16:26:03.182Z,1.72
2018-01-07T16:28:33.548Z,1.84
2018-01-07T16:31:01.901Z,1.86
2018-01-07T16:33:30.293Z,1.70
2018-01-07T16:35:58.638Z,1.71
2018-01-07T16:38:27.691Z,1.64
2018-01-07T16:40:56.016Z,1.57
2018-01-07T16:43:24.368Z,1.48
2018-01-07T16:45:53.664Z,1.46
2018-01-07T16:48:22.047Z,1.38
2018-01-07T16:50:50.511Z,1.43
2018-01-07T16:53:18.834Z,1.32
2018-01-07T16:55:47.198Z,1.30
2018-01-07T16:58:15.515Z,1.27
2018-01-07T17:00:43.854Z,1.29
2018-01-07T17:03:12.185Z,1.15
2018-01-07T17:05:40.544Z,1.11
2018-01-07T17:08:08.887Z,1.13
2018-01-07T17:10:37.230Z,1.08
2018-01-07T17:13:05.557Z,1.15
2018-01-07T17:15:33.890Z,1.11
2018-01-07T17:18:02.828Z,1.16
2018-01-07T17:20:31.247Z,1.13
2018-01-07T17:22:59.605Z,1.15
2018-01-07T17:25:28.754Z,1.14
2018-01-07T17:27:57.085Z,1.13
2018-01-07T17:30:25.426Z,1.13
2018-01-07T17:32:53.826Z,1.11
2018-01-07T17:35:22.488Z,1.06
2018-01-07T17:37:50.778Z,1.09
2018-01-07T17:40:19.126Z,1.04
2018-01-07T17:42:47.450Z,0.98
2018-01-07T17:45:15.807Z,0.93
2018-01-07T17:47:44.124Z,0.98
2018-01-07T17:50:12.462Z,0.91
2018-01-07T17:52:40.794Z,0.89
2018-01-07T17:55:09.135Z,0.91
2018-01-07T17:57:37.464Z,0.85
2018-01-07T18:00:05.810Z,0.85
2018-01-07T18:02:34.125Z,0.80
2018-01-07T18:05:02.476Z,0.80
2018-01-07T18:07:30.858Z,0.85
2018-01-07T18:09:59.218Z,0.80
2018-01-07T18:12:27.540Z,0.85
2018-01-07T18:14:55.879Z,0.91
2018-01-07T18:17:24.560Z,0.89
2018-01-07T18:19:52.882Z,0.85
2018-01-07T18:22:21.266Z,0.89
2018-01-07T18:24:49.643Z,0.80
2018-01-07T18:27:18.987Z,0.84
2018-01-07T18:29:47.774Z,0.79
2018-01-07T18:32:16.976Z,0.93
2018-01-07T18:34:45.322Z,0.93
2018-01-07T18:37:13.646Z,1.00
2018-01-07T18:39:42.008Z,1.02
2018-01-07T18:42:10.308Z,1.20
2018-01-07T18:44:38.659Z,1.13
2018-01-07T18:47:06.979Z,0.89
2018-01-07T18:49:35.319Z,0.97
2018-01-07T18:52:03.642Z,1.03
2018-01-07T18:54:32.007Z,0.89
2018-01-07T18:57:00.356Z,0.87
2018-01-07T18:59:28.658Z,0.83
2018-01-07T19:01:56.998Z,0.88
2018-01-07T19:04:25.314Z,0.85
2018-01-07T19:06:53.651Z,0.93
2018-01-07T19:09:21.982Z,0.91
2018-01-07T19:11:50.325Z,0.91
2018-01-07T19:14:18.653Z,0.92
2018-01-07T19:16:46.998Z,0.80
2018-01-07T19:19:15.337Z,0.74
2018-01-07T19:21:43.718Z,0.81
2018-01-07T19:24:12.067Z,0.73
2018-01-07T19:26:40.430Z,0.75
2018-01-07T19:29:08.745Z,0.73
2018-01-07T19:31:37.077Z,0.77
2018-01-07T19:34:05.412Z,0.67
2018-01-07T19:36:33.746Z,0.68
2018-01-07T19:39:02.066Z,0.79
2018-01-07T19:41:30.406Z,0.77
2018-01-07T19:43:58.722Z,0.68
2018-01-07T19:46:27.918Z,0.71
2018-01-07T19:48:56.234Z,0.75
2018-01-07T19:51:24.574Z,0.75
2018-01-07T19:53:52.893Z,0.68
2018-01-07T19:56:21.238Z,0.61
2018-01-07T19:58:49.558Z,0.66
2018-01-07T20:01:17.902Z,0.65
2018-01-07T20:03:46.231Z,0.72
2018-01-07T20:06:14.569Z,0.77
2018-01-07T20:08:42.886Z,0.74
2018-01-07T20:11:11.674Z,0.72
2018-01-07T20:13:39.994Z,0.71
2018-01-07T20:16:09.366Z,0.74
2018-01-07T20:18:37.787Z,0.77
2018-01-07T20:21:06.151Z,0.79
2018-01-07T20:23:34.546Z,0.85
2018-01-07T20:26:03.972Z,0.89
2018-01-07T20:28:32.306Z,0.92
2018-01-07T20:31:00.688Z,0.87
2018-01-07T20:33:28.999Z,0.91
2018-01-07T20:35:57.335Z,0.89
2018-01-07T20:38:25.650Z,0.93
2018-01-07T20:40:53.982Z,0.95
2018-01-07T20:43:22.377Z,0.96
2018-01-07T20:45:50.718Z,0.92
2018-01-07T20:48:19.059Z,0.87
2018-01-07T20:50:47.473Z,0.85
2018-01-07T20:53:15.790Z,0.88
2018-01-07T20:55:45.018Z,0.85
2018-01-07T20:58:13.334Z,0.87
2018-01-07T21:00:41.692Z,0.79
2018-01-07T21:03:10.019Z,0.85
2018-01-07T21:05:38.330Z,0.80
2018-01-07T21:08:06.671Z,0.92
2018-01-07T21:10:35.146Z,0.85
2018-01-07T21:13:03.786Z,0.77
2018-01-07T21:15:32.474Z,0.72
2018-01-07T21:18:01.248Z,0.74
2018-01-07T21:20:29.637Z,0.63
2018-01-07T21:22:57.981Z,0.66
2018-01-07T21:25:27.297Z,0.65
2018-01-07T21:27:55.643Z,0.61
2018-01-07T21:30:23.964Z,0.57
2018-01-07T21:32:52.298Z,0.59
2018-01-07T21:35:20.619Z,0.56
2018-01-07T21:37:48.971Z,0.53
2018-01-07T21:40:17.282Z,0.59
2018-01-07T21:42:45.675Z,0.62
2018-01-07T21:45:14.136Z,0.55
2018-01-07T21:47:42.457Z,0.54
2018-01-07T21:50:10.778Z,0.59
2018-01-07T21:52:39.126Z,0.53
2018-01-07T21:55:07.436Z,0.57
2018-01-07T21:57:35.783Z,0.54
2018-01-07T22:00:15.970Z,0.62
2018-01-07T22:02:44.306Z,0.58
2018-01-07T22:05:15.557Z,0.58
2018-01-07T22:07:43.906Z,0.56
2018-01-07T22:10:12.221Z,0.53
2018-01-07T22:12:40.582Z,0.53
2018-01-07T22:15:08.882Z,0.58
2018-01-07T22:17:38.099Z,0.55
2018-01-07T22:20:12.239Z,0.51
2018-01-07T22:22:41.356Z,0.48
2018-01-07T22:25:10.084Z,0.46
2018-01-07T22:27:39.882Z,0.48
2018-01-07T22:30:08.202Z,0.48
2018-01-07T22:32:36.538Z,0.47
2018-01-07T22:35:04.850Z,0.45
2018-01-07T22:37:33.188Z,0.39
2018-01-07T22:40:01.499Z,0.43
2018-01-07T22:42:29.838Z,0.40
2018-01-07T22:44:58.153Z,0.39
2018-01-07T22:47:32.000Z,0.40
2018-01-07T22:50:00.333Z,0.31
2018-01-07T22:52:28.655Z,0.36
2018-01-07T22:54:56.974Z,0.34
2018-01-07T22:57:25.301Z,0.22
2018-01-07T22:59:53.613Z,0.28
2018-01-07T23:02:21.952Z,0.18
2018-01-07T23:04:50.262Z,0.24
2018-01-07T23:07:18.595Z,0.21
2018-01-07T23:09:46.910Z,0.13
2018-01-07T23:12:15.247Z,0.20
2018-01-07T23:14:43.561Z,0.19
2018-01-07T23:17:11.902Z,0.15
2018-01-07T23:19:40.213Z,0.09
2018-01-07T23:22:08.545Z,0.16
2018-01-07T23:24:36.857Z,0.11
2018-01-07T23:27:05.216Z,0.06
2018-01-07T23:29:33.530Z,0.07
2018-01-07T23:32:01.845Z,0.06
2018-01-07T23:34:30.183Z,0.10
2018-01-07T23:36:58.494Z,0.00
2018-01-07T23:39:26.825Z,0.09
2018-01-07T23:41:55.133Z,0.08
2018-01-07T23:44:23.474Z,0.03
2018-01-07T23:46:51.793Z,-0.08
2018-01-07T23:49:20.137Z,-0.01
2018-01-07T23:51:48.458Z,-0.01
2018-01-07T23:54:16.789Z,-0.03
2018-01-07T23:56:45.109Z,-0.04
2018-01-07T23:59:13.441Z,0.08
